UAE46 EDDF-OMDB
Flight info
| Callsign | UAE46 |
|---|---|
| Flight time | N/A |
| Altitude | 37000 |
| Route | CINDY8S CINDY Z74 LAMPU DCT NOMBO Y161 MAH DCT LATLO DCT OBEDI DCT BABOL DCT NISVA DCT USALI DCT OTKOK DCT RODIP DCT BELGI DCT KETEK UT38 VESAR/N0493F390 L620 BALMA UR655 LEBOR R655 KTN R785 RASLI P559 TRF R23 NEVOL N318 TAMRO T503 KSA M321 RESAL T533 RAPMA DCT KUVSO DCT KATIT DCT PEKEM M628 RIGIL G783 ELUDA/N0475F350 G783 ASPED Q308 KIPOK Q568 IMPED |
| Aircraft | A388/J-SADE2E3FGHIJ3J4J5M1RWXY/LB1D1 |
Departure
| Time | 2026-05-06 07:47 |
|---|---|
| Airport | Frankfurt Main Airport (EDDF) |
Arrival
| Time | N/A |
|---|---|
| Airport | Dubai International Airport (OMDB) |
| Time | Latitude | Longitude | Altitude | Speed | Heading |
|---|---|---|---|---|---|
| 2026-05-06 06:53 | 50.03192 | 8.57424 | 368 ft | 0 kts | 205° |
| 2026-05-06 07:38 | 50.03207 | 8.57435 | 369 ft | 4 kts | 205° |
| 2026-05-06 07:39 | 50.03228 | 8.57450 | 366 ft | 2 kts | 205° |
| 2026-05-06 07:39 | 50.03254 | 8.57481 | 368 ft | 4 kts | 247° |
| 2026-05-06 07:39 | 50.03257 | 8.57505 | 368 ft | 4 kts | 284° |
| 2026-05-06 07:39 | 50.03248 | 8.57540 | 363 ft | 4 kts | 295° |
| 2026-05-06 07:40 | 50.03237 | 8.57578 | 352 ft | 4 kts | 295° |
| 2026-05-06 07:40 | 50.03231 | 8.57600 | 368 ft | 0 kts | 295° |
| 2026-05-06 07:42 | 50.03254 | 8.57523 | 368 ft | 18 kts | 295° |
| 2026-05-06 07:42 | 50.03314 | 8.57322 | 365 ft | 21 kts | 295° |
| 2026-05-06 07:43 | 50.03350 | 8.57122 | 363 ft | 20 kts | 267° |
| 2026-05-06 07:43 | 50.03308 | 8.56955 | 362 ft | 16 kts | 250° |
| 2026-05-06 07:43 | 50.03275 | 8.56772 | 361 ft | 19 kts | 250° |
| 2026-05-06 07:43 | 50.03223 | 8.56558 | 360 ft | 22 kts | 249° |
| 2026-05-06 07:44 | 50.03166 | 8.56327 | 355 ft | 24 kts | 249° |
| 2026-05-06 07:44 | 50.03104 | 8.56072 | 359 ft | 26 kts | 250° |
| 2026-05-06 07:44 | 50.03040 | 8.55801 | 356 ft | 27 kts | 249° |
| 2026-05-06 07:44 | 50.02975 | 8.55536 | 352 ft | 27 kts | 249° |
| 2026-05-06 07:45 | 50.02908 | 8.55255 | 354 ft | 28 kts | 250° |
| 2026-05-06 07:45 | 50.02846 | 8.54991 | 352 ft | 28 kts | 250° |
| 2026-05-06 07:45 | 50.02791 | 8.54763 | 353 ft | 0 kts | 248° |
| 2026-05-06 07:45 | 50.03314 | 8.52594 | 336 ft | 1 kts | 179° |
| 2026-05-06 07:46 | 50.03295 | 8.52594 | 336 ft | 4 kts | 179° |
| 2026-05-06 07:46 | 50.03252 | 8.52596 | 336 ft | 14 kts | 179° |
| 2026-05-06 07:46 | 50.02899 | 8.52601 | 337 ft | 87 kts | 180° |
| 2026-05-06 07:46 | 50.02084 | 8.52608 | 335 ft | 142 kts | 180° |
| 2026-05-06 07:47 | 50.01000 | 8.52636 | 422 ft | 166 kts | 180° |
| 2026-05-06 07:47 | 49.99846 | 8.52664 | 855 ft | 168 kts | 181° |
| 2026-05-06 07:47 | 49.98657 | 8.52660 | 1232 ft | 174 kts | 181° |
| 2026-05-06 07:47 | 49.97455 | 8.52677 | 1754 ft | 172 kts | 177° |
| 2026-05-06 07:48 | 49.96328 | 8.53380 | 2121 ft | 184 kts | 139° |
| 2026-05-06 07:48 | 49.95577 | 8.55099 | 2282 ft | 201 kts | 114° |
| 2026-05-06 07:48 | 49.94970 | 8.57165 | 2399 ft | 221 kts | 117° |
| 2026-05-06 07:48 | 49.94299 | 8.59401 | 2876 ft | 233 kts | 109° |
| 2026-05-06 07:49 | 49.94000 | 8.61888 | 3631 ft | 236 kts | 93° |
| 2026-05-06 07:49 | 49.93935 | 8.64464 | 4205 ft | 251 kts | 95° |
| 2026-05-06 07:49 | 49.93817 | 8.67267 | 4643 ft | 267 kts | 99° |
| 2026-05-06 07:49 | 49.93153 | 8.69952 | 5343 ft | 268 kts | 128° |
| 2026-05-06 07:50 | 49.91782 | 8.71900 | 6110 ft | 268 kts | 146° |
| 2026-05-06 07:50 | 49.90235 | 8.73538 | 6887 ft | 269 kts | 147° |
| 2026-05-06 07:50 | 49.88760 | 8.75359 | 7625 ft | 273 kts | 135° |
| 2026-05-06 07:50 | 49.87600 | 8.77702 | 8374 ft | 278 kts | 121° |
| 2026-05-06 07:51 | 49.86686 | 8.80319 | 9104 ft | 281 kts | 120° |
| 2026-05-06 07:51 | 49.85735 | 8.82995 | 9853 ft | 284 kts | 121° |
| 2026-05-06 07:51 | 49.84756 | 8.85700 | 10406 ft | 294 kts | 121° |
| 2026-05-06 07:51 | 49.83714 | 8.88558 | 10587 ft | 314 kts | 121° |
| 2026-05-06 07:52 | 49.82604 | 8.91603 | 10774 ft | 332 kts | 121° |
| 2026-05-06 07:52 | 49.81473 | 8.94711 | 11263 ft | 338 kts | 121° |
| 2026-05-06 07:52 | 49.80311 | 8.97908 | 11898 ft | 341 kts | 121° |
| 2026-05-06 07:52 | 49.79139 | 9.01126 | 12524 ft | 344 kts | 121° |
| 2026-05-06 07:53 | 49.77955 | 9.04374 | 13148 ft | 347 kts | 121° |
| 2026-05-06 07:53 | 49.76786 | 9.07668 | 13731 ft | 351 kts | 117° |
| 2026-05-06 07:53 | 49.75892 | 9.11148 | 14292 ft | 355 kts | 109° |
| 2026-05-06 07:53 | 49.75273 | 9.14874 | 14802 ft | 359 kts | 107° |
| 2026-05-06 07:54 | 49.74374 | 9.18477 | 15333 ft | 360 kts | 120° |
| 2026-05-06 07:54 | 49.73037 | 9.21699 | 15903 ft | 360 kts | 130° |
| 2026-05-06 07:54 | 49.71380 | 9.24613 | 16437 ft | 362 kts | 134° |
| 2026-05-06 07:54 | 49.69699 | 9.27544 | 16964 ft | 365 kts | 133° |
| 2026-05-06 07:55 | 49.68027 | 9.30497 | 17515 ft | 368 kts | 133° |
| 2026-05-06 07:55 | 49.66330 | 9.33499 | 17996 ft | 371 kts | 133° |
| 2026-05-06 07:55 | 49.64650 | 9.36470 | 18448 ft | 373 kts | 133° |
| 2026-05-06 07:55 | 49.62895 | 9.39459 | 18909 ft | 374 kts | 137° |
| 2026-05-06 07:56 | 49.60924 | 9.42103 | 19346 ft | 374 kts | 145° |
| 2026-05-06 07:56 | 49.58750 | 9.44322 | 19800 ft | 375 kts | 152° |
| 2026-05-06 07:56 | 49.56490 | 9.46339 | 20252 ft | 377 kts | 151° |
| 2026-05-06 07:56 | 49.54239 | 9.48383 | 20624 ft | 381 kts | 151° |
| 2026-05-06 07:57 | 49.51962 | 9.50466 | 21076 ft | 383 kts | 151° |
| 2026-05-06 07:57 | 49.49659 | 9.52573 | 21502 ft | 385 kts | 151° |
| 2026-05-06 07:57 | 49.47343 | 9.54689 | 21936 ft | 387 kts | 150° |
| 2026-05-06 07:57 | 49.45015 | 9.56811 | 22339 ft | 390 kts | 150° |
| 2026-05-06 07:58 | 49.42676 | 9.58940 | 22746 ft | 392 kts | 150° |
| 2026-05-06 07:58 | 49.40340 | 9.61062 | 23141 ft | 395 kts | 150° |
| 2026-05-06 07:58 | 49.37960 | 9.63222 | 23522 ft | 397 kts | 151° |
| 2026-05-06 07:58 | 49.35573 | 9.65416 | 23895 ft | 398 kts | 148° |
| 2026-05-06 07:59 | 49.33361 | 9.67909 | 24277 ft | 400 kts | 141° |
| 2026-05-06 07:59 | 49.31326 | 9.70843 | 24692 ft | 402 kts | 136° |
| 2026-05-06 07:59 | 49.29367 | 9.73887 | 25039 ft | 404 kts | 137° |
| 2026-05-06 07:59 | 49.27390 | 9.76926 | 25489 ft | 405 kts | 137° |
| 2026-05-06 08:00 | 49.25378 | 9.79997 | 25923 ft | 408 kts | 137° |
| 2026-05-06 08:00 | 49.23362 | 9.83066 | 26324 ft | 410 kts | 138° |
| 2026-05-06 08:00 | 49.21339 | 9.86141 | 26736 ft | 412 kts | 138° |